createdAt,value
2023-03-22T00:02:02.073Z,90.77944
2023-03-22T00:07:03.658Z,89.36686
2023-03-22T00:12:05.161Z,89.43203
2023-03-22T00:17:06.626Z,84.79453
2023-03-22T00:22:08.152Z,84.49668
2023-03-22T00:27:09.719Z,88.19727
2023-03-22T00:32:11.252Z,89.80926
2023-03-22T00:37:12.765Z,89.51763
2023-03-22T00:42:14.211Z,89.09313
2023-03-22T00:47:15.710Z,91.20022
2023-03-22T00:52:17.392Z,88.37368
2023-03-22T00:57:18.874Z,89.34171
2023-03-22T01:02:20.459Z,84.72568
2023-03-22T01:07:22.130Z,89.4917
2023-03-22T01:12:23.615Z,87.68035
2023-03-22T01:17:25.078Z,86.62971
2023-03-22T01:22:26.664Z,83.93427
2023-03-22T01:27:28.164Z,87.4251
2023-03-22T01:32:29.757Z,84.36067
2023-03-22T01:37:31.242Z,86.64132
2023-03-22T01:42:32.882Z,83.35783
2023-03-22T01:47:34.350Z,83.41486
2023-03-22T01:52:35.843Z,84.88417
2023-03-22T01:57:37.310Z,83.23323
2023-03-22T02:02:38.896Z,83.78841
2023-03-22T02:07:40.454Z,82.05497
2023-03-22T02:12:41.971Z,84.77595
2023-03-22T02:17:43.469Z,83.29485
2023-03-22T02:22:45.039Z,83.16822
2023-03-22T02:27:46.465Z,86.53872
2023-03-22T02:32:47.961Z,84.36017
2023-03-22T02:37:49.534Z,86.58256
2023-03-22T02:42:50.946Z,88.52598
2023-03-22T02:47:52.454Z,84.98014
2023-03-22T02:52:53.970Z,86.40203
2023-03-22T02:57:55.458Z,85.80366
2023-03-22T03:02:56.923Z,85.32332
2023-03-22T03:07:58.540Z,86.5419
2023-03-22T03:13:00.032Z,84.64549
2023-03-22T03:18:01.521Z,85.37746
2023-03-22T03:23:03.064Z,90.03228
2023-03-22T03:28:04.507Z,85.61753
2023-03-22T03:33:06.065Z,84.87871
2023-03-22T03:38:07.600Z,88.29043
2023-03-22T03:43:09.118Z,91.53537
2023-03-22T03:48:10.641Z,87.07567
2023-03-22T03:53:12.227Z,87.53618
2023-03-22T03:58:13.695Z,86.70288
2023-03-22T04:03:15.202Z,89.69182
2023-03-22T04:08:16.750Z,89.39019
2023-03-22T04:13:18.164Z,90.47358
2023-03-22T04:18:19.853Z,86.1533
2023-03-22T04:23:21.326Z,86.41826
2023-03-22T04:28:22.740Z,89.61297
2023-03-22T04:33:24.210Z,87.18819
2023-03-22T04:38:25.852Z,85.61857
2023-03-22T04:43:27.327Z,86.56817
2023-03-22T04:48:29.091Z,86.19942
2023-03-22T04:53:31.007Z,83.23266
2023-03-22T04:58:32.502Z,82.98555
2023-03-22T05:03:33.979Z,86.19593
2023-03-22T05:08:35.504Z,91.90315
2023-03-22T05:13:36.920Z,88.5667
2023-03-22T05:18:38.474Z,86.03405
2023-03-22T05:23:39.998Z,82.99855
2023-03-22T05:28:41.446Z,85.96192
2023-03-22T05:33:43.024Z,81.62464
2023-03-22T05:38:44.566Z,79.4363
2023-03-22T05:43:46.026Z,76.60603
2023-03-22T05:48:47.563Z,74.63946
2023-03-22T05:53:49.121Z,73.36928
2023-03-22T05:58:50.648Z,71.50259
2023-03-22T06:03:52.158Z,70.55299
2023-03-22T06:08:53.951Z,69.99842
2023-03-22T06:13:56.787Z,72.56911
2023-03-22T06:18:58.220Z,69.31506
2023-03-22T06:23:59.798Z,70.33626
2023-03-22T06:29:01.596Z,68.04529
2023-03-22T06:34:03.145Z,68.69177
2023-03-22T06:39:04.770Z,67.16111
2023-03-22T06:44:06.267Z,67.94022
2023-03-22T06:49:07.744Z,67.46566
2023-03-22T06:54:09.206Z,63.86979
2023-03-22T06:59:10.664Z,65.50661
2023-03-22T07:04:12.229Z,61.11546
2023-03-22T07:09:13.776Z,55.61834
2023-03-22T07:14:15.247Z,59.76648
2023-03-22T07:19:16.739Z,59.33015
2023-03-22T07:24:18.223Z,58.24309
2023-03-22T07:29:20.039Z,57.34905
2023-03-22T07:34:21.511Z,54.27261
2023-03-22T07:39:23.086Z,53.07427
2023-03-22T07:44:24.566Z,54.68693
2023-03-22T07:49:26.009Z,50.38046
2023-03-22T07:54:33.895Z,51.06362
2023-03-22T07:59:36.933Z,51.95619
2023-03-22T08:04:42.023Z,50.16544
2023-03-22T08:09:43.529Z,49.29626
2023-03-22T08:14:44.966Z,46.23537
2023-03-22T08:19:46.477Z,47.41948
2023-03-22T08:24:48.143Z,44.89438
2023-03-22T08:29:49.702Z,46.99808
2023-03-22T08:34:51.183Z,40.38831
2023-03-22T08:39:52.714Z,39.51785
2023-03-22T08:44:54.194Z,40.95971
2023-03-22T08:49:55.616Z,42.89503
2023-03-22T08:54:57.177Z,41.57167
2023-03-22T08:59:58.619Z,38.36308
2023-03-22T09:05:00.053Z,41.15262
2023-03-22T09:10:01.548Z,38.33076
2023-03-22T09:15:03.024Z,39.14111
2023-03-22T09:20:12.524Z,35.94539
2023-03-22T09:25:14.487Z,35.44522
2023-03-22T09:30:15.920Z,35.94765
2023-03-22T09:35:17.346Z,34.76838
2023-03-22T09:40:18.952Z,35.17428
2023-03-22T09:45:20.392Z,36.32096
2023-03-22T09:50:21.921Z,35.33094
2023-03-22T09:55:23.448Z,34.35694
2023-03-22T10:00:24.998Z,32.67816
2023-03-22T10:05:26.465Z,33.456
2023-03-22T10:10:28.586Z,33.47141
2023-03-22T10:15:30.069Z,30.44265
2023-03-22T10:20:31.562Z,30.61988
2023-03-22T10:25:33.787Z,30.1817
2023-03-22T10:30:38.939Z,31.33251
2023-03-22T10:35:40.952Z,31.55753
2023-03-22T10:40:42.594Z,29.176
2023-03-22T10:45:44.094Z,29.13111
2023-03-22T10:50:45.595Z,30.37639
2023-03-22T10:55:47.139Z,28.706
2023-03-22T11:00:48.819Z,30.12526
2023-03-22T11:05:50.535Z,30.98663
2023-03-22T11:10:52.106Z,31.6618
2023-03-22T11:15:53.607Z,30.61353
2023-03-22T11:20:55.061Z,30.4446
2023-03-22T11:25:56.692Z,30.75644
2023-03-22T11:30:58.146Z,30.07055
2023-03-22T11:35:59.764Z,27.73681
2023-03-22T11:41:01.342Z,29.35624
2023-03-22T11:46:02.951Z,27.61417
2023-03-22T11:51:04.400Z,26.21454
2023-03-22T11:56:05.999Z,24.83179
2023-03-22T12:01:07.563Z,25.23976
2023-03-22T12:06:09.172Z,25.29976
2023-03-22T12:11:10.867Z,25.50517
2023-03-22T12:16:12.633Z,25.76514
2023-03-22T12:21:14.119Z,21.36562
2023-03-22T12:26:15.558Z,22.20867
2023-03-22T12:31:17.163Z,21.63613
2023-03-22T12:36:18.694Z,20.97086
2023-03-22T12:41:20.357Z,20.5438
2023-03-22T12:46:21.851Z,20.24116
2023-03-22T12:51:23.357Z,21.12566
2023-03-22T12:56:24.907Z,21.96038
2023-03-22T13:01:26.564Z,21.41668
2023-03-22T13:06:28.126Z,21.95409
2023-03-22T13:11:29.561Z,20.63444
2023-03-22T13:16:31.144Z,21.12112
2023-03-22T13:21:32.678Z,21.23221
2023-03-22T13:26:34.162Z,19.90854
2023-03-22T13:31:35.760Z,21.41583
2023-03-22T13:36:37.334Z,20.50968
2023-03-22T13:41:38.879Z,21.88374
2023-03-22T13:46:40.524Z,19.97616
2023-03-22T13:51:42.249Z,20.41153
2023-03-22T13:56:43.733Z,21.43718
2023-03-22T14:01:45.327Z,21.37323
2023-03-22T14:06:47.126Z,22.19641
2023-03-22T14:11:48.833Z,21.6596
2023-03-22T14:16:50.306Z,23.60756
2023-03-22T14:56:57.241Z,21.89107
2023-03-22T15:01:58.783Z,22.89289
2023-03-22T15:07:00.070Z,22.18873
2023-03-22T15:12:01.584Z,23.04746
2023-03-22T15:17:03.000Z,22.46166
2023-03-22T15:22:04.283Z,23.3116
2023-03-22T15:27:05.831Z,22.90921
2023-03-22T15:32:07.215Z,23.68513
2023-03-22T15:37:08.490Z,23.69071
2023-03-22T15:42:09.964Z,24.66413
2023-03-22T15:47:11.238Z,24.32971
2023-03-22T15:52:12.483Z,24.87716
2023-03-22T15:57:13.838Z,25.59373
2023-03-22T16:02:15.103Z,26.0497
2023-03-22T16:07:16.413Z,26.71157
2023-03-22T16:12:17.863Z,27.94049
2023-03-22T16:17:19.170Z,28.36932
2023-03-22T16:22:20.436Z,29.08383
2023-03-22T16:27:21.685Z,29.91716
2023-03-22T16:32:23.056Z,30.46429
2023-03-22T16:37:24.313Z,31.48731
2023-03-22T16:42:25.752Z,31.72236
2023-03-22T16:47:26.984Z,32.67039
2023-03-22T16:52:28.262Z,35.03963
2023-03-22T16:57:29.602Z,36.33244
2023-03-22T17:02:30.859Z,36.62632
2023-03-22T17:07:32.204Z,37.07085
2023-03-22T17:12:33.772Z,36.84029
2023-03-22T17:17:35.132Z,37.12964
2023-03-22T17:22:36.359Z,38.05028
2023-03-22T17:27:37.740Z,37.89513
2023-03-22T17:32:57.841Z,38.92191
2023-03-22T17:38:02.912Z,37.87368
2023-03-22T17:43:04.339Z,38.95319
2023-03-22T17:48:05.768Z,38.9951
2023-03-22T17:53:20.963Z,38.55707
2023-03-22T17:58:41.829Z,39.38294
2023-03-22T18:03:43.220Z,38.88752
2023-03-22T18:08:44.613Z,39.72453
2023-03-22T18:13:51.056Z,40.10229
2023-03-22T18:18:54.338Z,42.158
2023-03-22T18:23:57.107Z,41.3759
2023-03-22T18:28:58.460Z,41.57756
2023-03-22T18:33:59.824Z,42.1146
2023-03-22T18:39:40.425Z,41.81595
2023-03-22T18:44:58.145Z,41.89469
2023-03-22T18:49:59.391Z,41.65192
2023-03-22T18:55:15.145Z,42.14952
2023-03-22T19:00:31.199Z,42.91044
2023-03-22T19:05:32.540Z,43.67786
2023-03-22T19:10:34.022Z,43.93445
2023-03-22T19:15:44.412Z,44.21318
2023-03-22T19:21:06.579Z,48.05556
2023-03-22T19:26:13.097Z,58.62414
2023-03-22T19:31:14.477Z,50.78158
2023-03-22T19:36:15.877Z,50.38715
2023-03-22T19:41:43.945Z,59.14364
2023-03-22T19:47:00.657Z,69.62262
2023-03-22T19:52:02.358Z,73.27636
2023-03-22T19:57:03.757Z,73.89524
2023-03-22T20:02:05.361Z,75.67997
2023-03-22T20:07:07.219Z,72.42332
2023-03-22T20:12:08.764Z,73.11701
2023-03-22T20:17:12.641Z,75.10996
2023-03-22T20:22:19.283Z,77.18781
2023-03-22T20:27:20.535Z,77.33054
2023-03-22T20:32:22.106Z,74.90564
2023-03-22T20:37:23.413Z,72.82728
2023-03-22T20:42:24.690Z,72.79064
2023-03-22T20:47:26.081Z,70.10598
2023-03-22T20:52:27.355Z,70.72201
2023-03-22T20:57:28.717Z,68.78698
2023-03-22T21:02:30.139Z,69.69772
2023-03-22T21:07:31.652Z,70.68806
2023-03-22T21:12:33.047Z,70.10704
2023-03-22T21:17:34.419Z,72.09049
2023-03-22T21:22:35.787Z,72.83568
2023-03-22T21:27:37.364Z,75.39243
2023-03-22T21:32:38.857Z,76.05605
2023-03-22T21:37:40.236Z,73.09591
2023-03-22T21:42:41.467Z,73.63488
2023-03-22T21:47:42.742Z,73.371
2023-03-22T21:52:44.174Z,77.68762
2023-03-22T21:57:45.386Z,78.08493
2023-03-22T22:02:46.829Z,77.75517
2023-03-22T22:07:48.548Z,75.96769
2023-03-22T22:12:50.293Z,75.41264
2023-03-22T22:17:52.249Z,74.88869
2023-03-22T22:22:53.508Z,75.99537
2023-03-22T22:27:55.442Z,80.10659
2023-03-22T22:32:56.870Z,81.78807
2023-03-22T22:37:58.412Z,81.1316
2023-03-22T22:42:59.674Z,77.44532
2023-03-22T22:48:00.971Z,79.04274
2023-03-22T22:53:02.503Z,78.95317
2023-03-22T22:58:03.776Z,77.79955
2023-03-22T23:03:05.141Z,80.18861
2023-03-22T23:08:06.576Z,83.08522
2023-03-22T23:13:08.014Z,81.64285
2023-03-22T23:18:10.333Z,83.06004
2023-03-22T23:23:12.046Z,81.42987
2023-03-22T23:28:13.307Z,81.18416
2023-03-22T23:33:14.804Z,86.34898
2023-03-22T23:38:16.430Z,80.82578
2023-03-22T23:43:17.844Z,79.08528
2023-03-22T23:48:19.118Z,82.41003
2023-03-22T23:53:20.444Z,85.1987
2023-03-22T23:58:21.779Z,81.13052
